createdAt,value
2018-07-04T00:00:27.161Z,101632.20
2018-07-04T00:03:06.765Z,101638.72
2018-07-04T00:05:46.476Z,101635.17
2018-07-04T00:08:25.988Z,101636.13
2018-07-04T00:11:05.498Z,101639.52
2018-07-04T00:13:44.936Z,101630.05
2018-07-04T00:16:24.508Z,101639.22
2018-07-04T00:19:03.917Z,101637.66
2018-07-04T00:21:43.569Z,101630.51
2018-07-04T00:24:22.903Z,101630.40
2018-07-04T00:27:02.322Z,101636.61
2018-07-04T00:29:42.253Z,101639.50
2018-07-04T00:32:21.778Z,101641.02
2018-07-04T00:35:01.287Z,101642.95
2018-07-04T00:37:40.781Z,101645.11
2018-07-04T00:40:22.157Z,101645.36
2018-07-04T00:43:01.521Z,101648.05
2018-07-04T00:45:41.228Z,101636.83
2018-07-04T00:48:20.761Z,101637.50
2018-07-04T00:51:00.514Z,101636.61
2018-07-04T00:53:40.089Z,101637.45
2018-07-04T00:56:20.021Z,101639.00
2018-07-04T00:58:59.651Z,101640.00
2018-07-04T01:01:39.045Z,101629.98
2018-07-04T01:04:18.770Z,101628.94
2018-07-04T01:06:58.373Z,101625.23
2018-07-04T01:09:37.929Z,101625.81
2018-07-04T01:12:17.645Z,101618.20
2018-07-04T01:14:57.249Z,101618.89
2018-07-04T01:17:37.097Z,101617.86
2018-07-04T01:20:16.621Z,101629.13
2018-07-04T01:22:56.179Z,101623.84
2018-07-04T01:25:35.882Z,101628.12
2018-07-04T01:28:15.495Z,101625.03
2018-07-04T01:30:56.205Z,101634.30
2018-07-04T01:33:36.038Z,101630.34
2018-07-04T01:36:15.700Z,101626.17
2018-07-04T01:38:55.209Z,101629.64
2018-07-04T01:41:34.757Z,101628.44
2018-07-04T01:44:14.356Z,101620.34
2018-07-04T01:46:53.867Z,101619.86
2018-07-04T01:49:33.441Z,101617.30
2018-07-04T01:52:13.037Z,101624.89
2018-07-04T01:54:52.442Z,101623.20
2018-07-04T01:57:31.906Z,101624.02
2018-07-04T02:00:12.312Z,101625.03
2018-07-04T02:02:51.838Z,101626.18
2018-07-04T02:05:31.525Z,101627.53
2018-07-04T02:08:10.901Z,101627.42
2018-07-04T02:10:50.459Z,101632.25
2018-07-04T02:13:30.021Z,101627.09
2018-07-04T02:16:09.522Z,101628.55
2018-07-04T02:18:49.048Z,101629.92
2018-07-04T02:21:28.667Z,101627.61
2018-07-04T02:24:08.356Z,101631.34
2018-07-04T02:26:47.949Z,101622.69
2018-07-04T02:29:27.620Z,101624.46
2018-07-04T02:32:07.425Z,101624.57
2018-07-04T02:34:46.961Z,101628.66
2018-07-04T02:37:26.663Z,101626.37
2018-07-04T02:40:07.665Z,101623.14
2018-07-04T02:42:47.314Z,101611.83
2018-07-04T02:45:27.300Z,101616.16
2018-07-04T02:48:06.887Z,101611.41
2018-07-04T02:50:46.520Z,101605.70
2018-07-04T02:53:26.124Z,101610.83
2018-07-04T02:56:05.691Z,101603.13
2018-07-04T02:58:45.192Z,101605.86
2018-07-04T03:01:24.773Z,101610.54
2018-07-04T03:04:04.331Z,101603.50
2018-07-04T03:06:43.974Z,101607.93
2018-07-04T03:09:23.579Z,101609.08
2018-07-04T03:12:03.334Z,101609.16
2018-07-04T03:14:42.990Z,101604.38
2018-07-04T03:17:22.534Z,101609.65
2018-07-04T03:20:01.989Z,101607.81
2018-07-04T03:22:41.685Z,101611.50
2018-07-04T03:25:21.383Z,101610.59
2018-07-04T03:28:01.469Z,101611.23
2018-07-04T03:30:41.064Z,101606.77
2018-07-04T03:33:20.622Z,101599.52
2018-07-04T03:36:00.297Z,101602.03
2018-07-04T03:38:39.997Z,101599.52
2018-07-04T03:41:19.660Z,101609.89
2018-07-04T03:43:59.166Z,101598.36
2018-07-04T03:46:38.668Z,101594.16
2018-07-04T03:49:18.474Z,101597.80
2018-07-04T03:51:58.078Z,101598.08
2018-07-04T03:54:37.721Z,101604.67
2018-07-04T03:57:17.301Z,101598.33
2018-07-04T03:59:56.964Z,101603.08
2018-07-04T04:02:36.946Z,101609.18
2018-07-04T04:05:17.417Z,101615.28
2018-07-04T04:07:57.029Z,101617.50
2018-07-04T04:10:36.629Z,101614.86
2018-07-04T04:13:16.213Z,101618.89
2018-07-04T04:15:55.825Z,101617.99
2018-07-04T04:18:35.344Z,101611.95
2018-07-04T04:21:14.805Z,101610.19
2018-07-04T04:23:54.349Z,101618.41
2018-07-04T04:26:33.741Z,101615.84
2018-07-04T04:29:13.241Z,101609.17
2018-07-04T04:31:52.685Z,101605.70
2018-07-04T04:34:32.168Z,101607.77
2018-07-04T04:37:12.828Z,101609.13
2018-07-04T04:39:52.513Z,101597.22
2018-07-04T04:42:32.138Z,101598.48
2018-07-04T04:45:11.780Z,101603.22
2018-07-04T04:47:51.343Z,101601.62
2018-07-04T04:50:31.008Z,101616.00
2018-07-04T04:53:10.637Z,101619.61
2018-07-04T04:55:50.121Z,101616.55
2018-07-04T04:58:29.773Z,101616.56
2018-07-04T05:01:09.277Z,101613.70
2018-07-04T05:03:48.773Z,101617.98
2018-07-04T05:06:28.323Z,101610.48
2018-07-04T05:09:07.866Z,101614.84
2018-07-04T05:11:47.355Z,101613.86
2018-07-04T05:14:26.881Z,101611.39
2018-07-04T05:17:06.398Z,101615.14
2018-07-04T05:19:45.984Z,101610.17
2018-07-04T05:22:25.363Z,101610.67
2018-07-04T05:25:05.014Z,101611.37
2018-07-04T05:27:44.721Z,101604.77
2018-07-04T05:30:24.412Z,101605.39
2018-07-04T05:33:04.069Z,101607.53
2018-07-04T05:35:43.609Z,101612.57
2018-07-04T05:38:23.285Z,101616.61
2018-07-04T05:41:02.860Z,101607.39
2018-07-04T05:43:42.389Z,101606.77
2018-07-04T05:46:21.817Z,101614.19
2018-07-04T05:49:01.426Z,101613.02
2018-07-04T05:51:40.932Z,101612.77
2018-07-04T05:54:20.458Z,101616.33
2018-07-04T05:56:59.827Z,101618.31
2018-07-04T05:59:39.394Z,101606.78
2018-07-04T06:02:18.960Z,101606.10
2018-07-04T06:04:58.669Z,101613.11
2018-07-04T06:07:38.173Z,101604.40
2018-07-04T06:10:17.833Z,101605.84
2018-07-04T06:12:57.256Z,101598.15
2018-07-04T06:15:36.796Z,101587.41
2018-07-04T06:18:16.341Z,101602.83
2018-07-04T06:20:55.986Z,101600.34
2018-07-04T06:23:35.610Z,101598.20
2018-07-04T06:26:15.198Z,101603.30
2018-07-04T06:28:54.735Z,101604.13
2018-07-04T06:31:34.245Z,101609.95
2018-07-04T06:34:14.853Z,101607.48
2018-07-04T06:36:54.505Z,101607.00
2018-07-04T06:39:22.149Z,101602.72
2018-07-04T06:41:49.313Z,101610.84
2018-07-04T06:44:16.460Z,101604.05
2018-07-04T06:46:43.621Z,101602.83
2018-07-04T06:49:10.793Z,101607.80
2018-07-04T06:51:37.974Z,101605.30
2018-07-04T06:54:05.130Z,101607.01
2018-07-04T06:56:32.269Z,101605.98
2018-07-04T06:58:59.451Z,101601.00
2018-07-04T07:01:26.601Z,101603.73
2018-07-04T07:04:06.282Z,101602.80
2018-07-04T07:06:45.868Z,101599.53
2018-07-04T07:09:26.873Z,101601.16
2018-07-04T07:12:06.366Z,101593.87
2018-07-04T07:14:45.856Z,101591.16
2018-07-04T07:17:25.473Z,101594.37
2018-07-04T07:20:05.001Z,101591.86
2018-07-04T07:22:44.475Z,101595.83
2018-07-04T07:25:23.936Z,101590.03
2018-07-04T07:28:03.425Z,101596.83
2018-07-04T07:30:43.137Z,101596.41
2018-07-04T07:33:22.752Z,101595.84
2018-07-04T07:36:02.223Z,101599.59
2018-07-04T07:38:41.881Z,101593.51
2018-07-04T07:41:21.557Z,101599.02
2018-07-04T07:44:01.265Z,101594.53
2018-07-04T07:46:40.961Z,101590.31
2018-07-04T07:49:20.653Z,101588.94
2018-07-04T07:52:00.401Z,101593.58
2018-07-04T07:54:40.013Z,101593.12
2018-07-04T07:57:19.645Z,101589.45
2018-07-04T07:59:59.376Z,101597.92
2018-07-04T08:02:38.869Z,101591.77
2018-07-04T08:05:18.611Z,101580.03
2018-07-04T08:07:58.161Z,101582.49
2018-07-04T08:10:37.854Z,101580.06
2018-07-04T08:13:17.462Z,101577.56
2018-07-04T08:15:56.952Z,101575.53
2018-07-04T08:18:36.553Z,101583.03
2018-07-04T08:21:16.145Z,101573.19
2018-07-04T08:23:55.940Z,101575.42
2018-07-04T08:26:35.553Z,101567.62
2018-07-04T08:29:15.105Z,101573.42
2018-07-04T08:31:54.644Z,101572.96
2018-07-04T08:34:34.327Z,101572.61
2018-07-04T08:37:13.933Z,101576.97
2018-07-04T08:39:53.585Z,101572.09
2018-07-04T08:42:33.207Z,101585.05
2018-07-04T08:45:12.857Z,101576.27
2018-07-04T08:47:52.442Z,101572.82
2018-07-04T08:50:33.019Z,101580.23
2018-07-04T08:53:12.633Z,101581.08
2018-07-04T08:55:52.274Z,101582.92
2018-07-04T08:58:31.912Z,101582.87
2018-07-04T09:01:11.565Z,101574.59
2018-07-04T09:03:51.249Z,101581.09
2018-07-04T09:06:30.981Z,101574.59
2018-07-04T09:09:10.943Z,101575.38
2018-07-04T09:11:50.491Z,101570.92
2018-07-04T09:14:29.797Z,101577.46
2018-07-04T09:17:09.254Z,101577.52
2018-07-04T09:19:49.012Z,101576.16
2018-07-04T09:22:28.479Z,101574.77
2018-07-04T09:25:08.089Z,101574.91
2018-07-04T09:27:47.551Z,101567.30
2018-07-04T09:30:27.268Z,101567.47
2018-07-04T09:33:06.857Z,101566.13
2018-07-04T09:35:46.574Z,101571.73
2018-07-04T09:38:26.090Z,101573.91
2018-07-04T09:41:05.638Z,101573.58
2018-07-04T09:43:45.656Z,101570.19
2018-07-04T09:46:25.163Z,101573.97
2018-07-04T09:49:04.782Z,101571.96
2018-07-04T09:51:44.421Z,101575.02
2018-07-04T09:54:24.065Z,101571.45
2018-07-04T09:57:03.682Z,101570.45
2018-07-04T09:59:43.349Z,101569.44
2018-07-04T10:02:22.928Z,101565.37
2018-07-04T10:05:04.457Z,101569.73
2018-07-04T10:07:43.933Z,101565.52
2018-07-04T10:10:23.791Z,101567.30
2018-07-04T10:13:03.441Z,101558.80
2018-07-04T10:15:43.036Z,101557.00
2018-07-04T10:18:22.571Z,101553.30
2018-07-04T10:21:01.875Z,101553.75
2018-07-04T10:23:41.444Z,101557.05
2018-07-04T10:26:21.033Z,101551.33
2018-07-04T10:29:00.629Z,101553.31
2018-07-04T10:31:42.257Z,101559.08
2018-07-04T10:34:21.762Z,101556.73
2018-07-04T10:37:01.314Z,101539.23
2018-07-04T10:39:40.910Z,101546.22
2018-07-04T10:42:20.537Z,101542.81
2018-07-04T10:45:00.213Z,101550.48
2018-07-04T10:47:39.882Z,101544.11
2018-07-04T10:50:19.268Z,101542.48
2018-07-04T10:52:58.601Z,101545.20
2018-07-04T10:55:39.201Z,101541.28
2018-07-04T10:58:19.651Z,101543.34
2018-07-04T11:00:59.104Z,101552.35
2018-07-04T11:03:38.654Z,101552.81
2018-07-04T11:06:18.141Z,101545.47
2018-07-04T11:08:57.622Z,101542.89
2018-07-04T11:11:37.077Z,101549.12
2018-07-04T11:14:16.661Z,101545.08
2018-07-04T11:16:56.171Z,101543.23
2018-07-04T11:19:35.765Z,101538.66
2018-07-04T11:22:16.289Z,101538.18
2018-07-04T11:24:55.609Z,101533.17
2018-07-04T11:27:36.033Z,101523.77
2018-07-04T11:30:15.581Z,101525.01
2018-07-04T11:32:54.993Z,101520.42
2018-07-04T11:35:34.538Z,101514.08
2018-07-04T11:38:14.168Z,101513.45
2018-07-04T11:40:53.657Z,101513.00
2018-07-04T11:43:33.349Z,101513.95
2018-07-04T11:46:00.946Z,101512.89
2018-07-04T11:48:28.344Z,101513.36
2018-07-04T11:50:56.136Z,101504.34
2018-07-04T11:53:23.457Z,101520.84
2018-07-04T11:55:50.593Z,101507.04
2018-07-04T11:58:17.841Z,101510.22
2018-07-04T12:00:45.281Z,101512.62
2018-07-04T12:03:21.793Z,101510.94
2018-07-04T12:06:01.566Z,101507.69
2018-07-04T12:08:28.733Z,101499.71
2018-07-04T12:10:56.516Z,101504.39
2018-07-04T12:13:24.792Z,101506.95
2018-07-04T12:15:52.366Z,101495.70
2018-07-04T12:18:19.503Z,101508.45
2018-07-04T12:20:46.884Z,101506.58
2018-07-04T12:23:14.501Z,101504.20
2018-07-04T12:25:42.613Z,101505.10
2018-07-04T12:28:09.765Z,101508.37
2018-07-04T12:30:36.945Z,101492.86
2018-07-04T12:33:04.429Z,101498.46
2018-07-04T12:35:31.651Z,101499.67
2018-07-04T12:37:58.793Z,101495.14
2018-07-04T12:40:25.940Z,101496.06
2018-07-04T12:42:53.101Z,101492.38
2018-07-04T12:45:20.248Z,101495.34
2018-07-04T12:47:47.444Z,101494.67
2018-07-04T12:50:30.653Z,101492.41
2018-07-04T12:52:57.825Z,101497.05
2018-07-04T12:55:38.697Z,101493.74
2018-07-04T12:58:19.264Z,101488.37
2018-07-04T13:00:58.677Z,101488.66
2018-07-04T13:03:38.290Z,101489.95
2018-07-04T13:06:17.879Z,101485.70
2018-07-04T13:08:57.486Z,101486.06
2018-07-04T13:11:38.180Z,101478.45
2018-07-04T13:14:17.821Z,101478.01
2018-07-04T13:16:57.375Z,101469.83
2018-07-04T13:19:37.048Z,101477.00
2018-07-04T13:22:17.579Z,101475.44
2018-07-04T13:24:57.066Z,101472.05
2018-07-04T13:27:36.584Z,101469.01
2018-07-04T13:30:16.018Z,101471.79
2018-07-04T13:32:55.541Z,101472.27
2018-07-04T13:35:35.164Z,101468.95
2018-07-04T13:38:14.662Z,101466.81
2018-07-04T13:40:54.158Z,101469.59
2018-07-04T13:43:34.028Z,101463.56
2018-07-04T13:46:13.694Z,101466.08
2018-07-04T13:48:53.377Z,101454.73
2018-07-04T13:51:32.918Z,101442.88
2018-07-04T13:54:12.437Z,101434.06
2018-07-04T13:56:52.148Z,101434.42
2018-07-04T13:59:31.932Z,101431.56
2018-07-04T14:02:11.521Z,101428.20
2018-07-04T14:04:51.133Z,101418.39
2018-07-04T14:07:30.632Z,101410.38
2018-07-04T14:10:10.118Z,101408.57
2018-07-04T14:12:49.588Z,101414.38
2018-07-04T14:15:29.308Z,101412.41
2018-07-04T14:18:08.854Z,101402.84
2018-07-04T14:20:48.401Z,101399.37
2018-07-04T14:23:29.037Z,101398.77
2018-07-04T14:26:08.535Z,101400.67
2018-07-04T14:28:48.377Z,101407.33
2018-07-04T14:31:27.957Z,101400.39
2018-07-04T14:34:07.586Z,101394.49
2018-07-04T14:36:47.238Z,101395.44
2018-07-04T14:39:26.796Z,101397.36
2018-07-04T14:42:06.333Z,101402.30
2018-07-04T14:44:45.899Z,101404.11
2018-07-04T14:47:25.473Z,101398.78
2018-07-04T14:50:05.009Z,101398.50
2018-07-04T14:52:44.500Z,101401.16
2018-07-04T14:55:24.014Z,101396.52
2018-07-04T14:58:03.685Z,101401.62
2018-07-04T15:00:43.253Z,101400.75
2018-07-04T15:03:22.917Z,101395.63
2018-07-04T15:06:03.796Z,101386.55
2018-07-04T15:08:43.430Z,101389.22
2018-07-04T15:11:23.065Z,101380.25
2018-07-04T15:14:02.689Z,101390.55
2018-07-04T15:16:42.329Z,101384.29
2018-07-04T15:19:21.905Z,101377.94
2018-07-04T15:22:01.454Z,101372.77
2018-07-04T15:24:41.017Z,101367.56
2018-07-04T15:27:23.829Z,101370.98
2018-07-04T15:30:03.542Z,101375.00
2018-07-04T15:32:43.053Z,101372.84
2018-07-04T15:35:22.665Z,101364.89
2018-07-04T15:38:02.348Z,101365.60
2018-07-04T15:40:42.105Z,101364.02
2018-07-04T15:43:21.808Z,101361.03
2018-07-04T15:46:01.325Z,101370.13
2018-07-04T15:48:41.501Z,101362.17
2018-07-04T15:51:21.739Z,101359.37
2018-07-04T15:54:01.485Z,101358.87
2018-07-04T15:56:41.081Z,101349.31
2018-07-04T15:59:20.618Z,101355.25
2018-07-04T16:02:00.254Z,101354.78
2018-07-04T16:04:39.869Z,101343.80
2018-07-04T16:07:19.553Z,101355.48
2018-07-04T16:09:59.065Z,101347.30
2018-07-04T16:12:38.686Z,101350.67
2018-07-04T16:15:18.276Z,101354.14
2018-07-04T16:17:57.745Z,101355.13
2018-07-04T16:20:37.285Z,101352.63
2018-07-04T16:23:16.960Z,101351.39
2018-07-04T16:25:56.713Z,101348.20
2018-07-04T16:28:36.282Z,101350.11
2018-07-04T16:31:15.755Z,101350.58
2018-07-04T16:33:55.312Z,101343.78
2018-07-04T16:36:34.950Z,101349.54
2018-07-04T16:39:14.616Z,101343.95
2018-07-04T16:41:54.506Z,101337.45
2018-07-04T16:44:34.414Z,101341.91
2018-07-04T16:47:14.494Z,101340.64
2018-07-04T16:49:54.279Z,101345.58
2018-07-04T16:52:35.001Z,101343.59
2018-07-04T16:55:14.573Z,101348.79
2018-07-04T16:57:54.196Z,101341.08
2018-07-04T17:00:33.757Z,101342.30
2018-07-04T17:03:13.321Z,101344.31
2018-07-04T17:05:52.852Z,101346.06
2018-07-04T17:08:32.411Z,101338.99
2018-07-04T17:11:12.137Z,101336.91
2018-07-04T17:13:52.029Z,101336.00
2018-07-04T17:16:31.681Z,101334.34
2018-07-04T17:19:11.495Z,101331.11
2018-07-04T17:21:50.909Z,101341.97
2018-07-04T17:24:30.470Z,101326.72
2018-07-04T17:27:09.985Z,101328.55
2018-07-04T17:29:49.637Z,101331.83
2018-07-04T17:32:29.152Z,101327.34
2018-07-04T17:35:09.582Z,101332.77
2018-07-04T17:37:49.249Z,101330.28
2018-07-04T17:40:28.734Z,101332.98
2018-07-04T17:43:08.260Z,101338.77
2018-07-04T17:45:47.857Z,101322.05
2018-07-04T17:48:27.250Z,101326.00
2018-07-04T17:51:06.982Z,101322.72
2018-07-04T17:53:47.505Z,101332.59
2018-07-04T17:56:27.143Z,101341.04
2018-07-04T17:59:06.820Z,101332.37
2018-07-04T18:01:46.500Z,101340.42
2018-07-04T18:04:26.385Z,101334.42
2018-07-04T18:07:06.185Z,101333.76
2018-07-04T18:09:47.318Z,101337.44
2018-07-04T18:12:26.876Z,101326.61
2018-07-04T18:15:06.433Z,101334.91
2018-07-04T18:17:45.972Z,101328.84
2018-07-04T18:20:25.504Z,101327.58
2018-07-04T18:23:05.174Z,101333.18
2018-07-04T18:25:44.922Z,101322.13
2018-07-04T18:28:24.427Z,101330.30
2018-07-04T18:31:04.015Z,101326.75
2018-07-04T18:33:43.644Z,101329.34
2018-07-04T18:36:23.368Z,101338.33
2018-07-04T18:39:03.485Z,101333.62
2018-07-04T18:41:43.240Z,101332.51
2018-07-04T18:44:23.055Z,101333.08
2018-07-04T18:47:02.686Z,101324.05
2018-07-04T18:49:42.161Z,101336.42
2018-07-04T18:52:21.808Z,101333.34
2018-07-04T18:55:01.441Z,101339.84
2018-07-04T18:57:40.980Z,101334.84
2018-07-04T19:00:20.437Z,101343.95
2018-07-04T19:03:00.090Z,101343.47
2018-07-04T19:05:39.773Z,101340.53
2018-07-04T19:08:19.357Z,101352.29
2018-07-04T19:10:59.033Z,101345.95
2018-07-04T19:13:38.740Z,101341.24
2018-07-04T19:16:18.360Z,101345.81
2018-07-04T19:18:58.026Z,101351.45
2018-07-04T19:21:37.669Z,101349.27
2018-07-04T19:24:17.297Z,101348.75
2018-07-04T19:26:57.005Z,101354.27
2018-07-04T19:29:37.449Z,101346.69
2018-07-04T19:32:17.026Z,101346.69
2018-07-04T19:34:56.584Z,101347.02
2018-07-04T19:37:36.077Z,101350.27
2018-07-04T19:40:15.725Z,101351.64
2018-07-04T19:42:55.300Z,101345.72
2018-07-04T19:45:34.833Z,101346.08
2018-07-04T19:48:14.305Z,101343.27
2018-07-04T19:50:53.938Z,101337.03
2018-07-04T19:53:33.412Z,101340.34
2018-07-04T19:56:12.938Z,101344.80
2018-07-04T19:58:52.501Z,101335.77
2018-07-04T20:01:32.209Z,101337.61
2018-07-04T20:04:11.741Z,101337.59
2018-07-04T20:06:51.285Z,101337.75
2018-07-04T20:09:31.149Z,101335.30
2018-07-04T20:12:10.881Z,101338.25
2018-07-04T20:14:50.514Z,101337.08
2018-07-04T20:17:30.030Z,101337.55
2018-07-04T20:20:09.723Z,101337.03
2018-07-04T20:22:49.338Z,101334.85
2018-07-04T20:25:28.961Z,101330.22
2018-07-04T20:28:08.592Z,101335.12
2018-07-04T20:30:48.761Z,101337.84
2018-07-04T20:33:28.286Z,101331.38
2018-07-04T20:36:07.921Z,101333.20
2018-07-04T20:38:47.443Z,101333.07
2018-07-04T20:41:26.929Z,101334.36
2018-07-04T20:44:06.431Z,101338.63
2018-07-04T20:46:45.976Z,101333.96
2018-07-04T20:49:25.551Z,101336.91
2018-07-04T20:52:05.263Z,101336.61
2018-07-04T20:54:44.993Z,101331.61
2018-07-04T20:57:24.665Z,101328.59
2018-07-04T21:00:04.262Z,101329.91
2018-07-04T21:02:43.797Z,101326.77
2018-07-04T21:05:23.366Z,101326.55
2018-07-04T21:08:02.890Z,101337.14
2018-07-04T21:10:42.530Z,101334.41
2018-07-04T21:13:22.377Z,101330.75
2018-07-04T21:16:01.828Z,101333.17
2018-07-04T21:18:41.266Z,101330.20
2018-07-04T21:21:20.929Z,101329.94
2018-07-04T21:24:00.557Z,101331.09
2018-07-04T21:26:40.218Z,101345.92
2018-07-04T21:29:19.936Z,101339.70
2018-07-04T21:31:59.622Z,101335.73
2018-07-04T21:34:39.261Z,101343.62
2018-07-04T21:37:18.862Z,101344.94
2018-07-04T21:39:58.511Z,101342.17
2018-07-04T21:42:38.160Z,101338.09
2018-07-04T21:45:17.836Z,101343.45
2018-07-04T21:47:57.579Z,101339.25
2018-07-04T21:50:37.070Z,101344.81
2018-07-04T21:53:16.485Z,101343.99
2018-07-04T21:55:57.081Z,101348.25
2018-07-04T21:58:36.651Z,101346.92
2018-07-04T22:01:16.133Z,101348.84
2018-07-04T22:03:55.677Z,101348.30
2018-07-04T22:06:35.129Z,101351.26
2018-07-04T22:09:14.648Z,101354.92
2018-07-04T22:11:54.285Z,101354.64
2018-07-04T22:14:33.706Z,101356.25
2018-07-04T22:17:13.293Z,101361.30
2018-07-04T22:19:53.746Z,101347.46
2018-07-04T22:22:33.240Z,101350.77
2018-07-04T22:25:12.822Z,101348.18
2018-07-04T22:27:52.402Z,101347.53
2018-07-04T22:30:31.885Z,101342.23
2018-07-04T22:33:12.624Z,101336.06
2018-07-04T22:35:52.319Z,101338.05
2018-07-04T22:38:32.013Z,101337.98
2018-07-04T22:41:13.394Z,101339.80
2018-07-04T22:43:53.153Z,101339.60
2018-07-04T22:46:32.904Z,101334.35
2018-07-04T22:49:12.530Z,101336.38
2018-07-04T22:54:43.340Z,101330.98
2018-07-04T22:57:22.806Z,101323.75
2018-07-04T23:00:03.090Z,101327.17
2018-07-04T23:02:42.885Z,101324.66
2018-07-04T23:05:22.445Z,101326.31
2018-07-04T23:08:02.012Z,101321.75
2018-07-04T23:10:41.569Z,101323.20
2018-07-04T23:13:21.361Z,101322.01
2018-07-04T23:16:01.102Z,101319.69
2018-07-04T23:18:40.805Z,101316.38
2018-07-04T23:21:20.476Z,101308.84
2018-07-04T23:24:00.154Z,101300.34
2018-07-04T23:26:39.777Z,101300.16
2018-07-04T23:29:19.290Z,101299.40
2018-07-04T23:31:58.869Z,101310.28
2018-07-04T23:34:38.448Z,101306.63
2018-07-04T23:37:17.988Z,101310.32
2018-07-04T23:39:57.655Z,101304.56
2018-07-04T23:42:37.389Z,101302.67
2018-07-04T23:45:16.948Z,101312.31
2018-07-04T23:47:56.573Z,101301.61
2018-07-04T23:50:36.231Z,101299.29
2018-07-04T23:53:15.767Z,101304.20
2018-07-04T23:55:55.389Z,101305.58
2018-07-04T23:58:35.770Z,101304.34
